Windber, PA (15963)

7:45 AM EDT on July 29, 2015 (GMT -0400)
Ashtola | | Change Station
CLOSE
Current Station
Personal Weather Station
Location: Windber, PA
Elevation: 2085 ft
Nearby Weather Stations

Elev 2085 ft 40.20 °N, 78.80 °W | Updated 4 minutes ago

Clear
Clear
64.7 °F
Feels Like 64.7 °F
N
0.0
Wind Variable Wind from SW
Gusts 0.0 mph

Today
High -- | Low -- °F
--% Chance of Precip.
Yesterday
High -- | Low -- °F
Precip. -- in
6:10 AM 8:32 PM
Waxing Gibbous, 95% visible
Pressure 30.02 in
Visibility 6.0 miles
Clouds Clear
Dew Point 64 °F
Humidity 99%
Rainfall 0.00 in
Snow Depth Not available.
UV 0 out of 12
Pollen 5.60 out of 12
Air Quality Not available.
Flu Activity Not available.
METAR KJST 291054Z AUTO 00000KT 6SM HZ CLR 21/18 A3007 RMK AO2 SLP164 T02060178

More Conditions Fewer Conditions

Pressure 30.02 in
Visibility 6.0 miles
Clouds Clear
Dew Point 64 °F
Humidity 99%
Rainfall 0.00 in
Snow Depth Not available.
UV 0 out of 12
Pollen 5.60 out of 12
Air Quality Not available.
Flu Activity Not available.
METAR KJST 291054Z AUTO 00000KT 6SM HZ CLR 21/18 A3007 RMK AO2 SLP164 T02060178

More Conditions Fewer Conditions

10-Day Weather Forecast

×

Almanac

Astronomy

Jul. 29, 2015 Rise Set
Actual Time
Civil Twilight
Nautical Twilight
Astronomical Twilight
Moon
Length of Visible Light
Length of Day
Tomorrow will be .
, % of the Moon is Illuminated

Today's Extremes

State Highs State Lows

Community

WunderPhotos

Upload Photos

1,842,075 photos uploaded!

WunderBlogs® & News

Nearby

Air Quality

  Air Quality AQ Index Pollutant
Not available.

Snow Depth

Station Depth Elevation

Earthquake Activity

City Distance Mag. Time & Date
Minimum magnitude displayed is 2.5.

Coastal Water Temperatures

Place Temperature

Stations

Nearby Weather Stations

Station Location Temp. Windchill Dew Point Humidity Wind Precip. Elev Updated Type